Time;durP1;ratioP1;P1;durP2;ratioP2;P2;SDS_P1;SDS_P2;PMS_P1;PMS_P2;Temp;Humidity;BMP_temperature;BMP_pressure;BME280_temperature;BME280_humidity;BME280_pressure;Samples;Min_cycle;Max_cycle;Signal;HPM_P1;HPM_P2
2023/05/14 00:02:09;;;;;;;15.65;7.50;;;13.60;65.20;;;;;;4791180;30;20148;-92
2023/05/14 00:04:36;;;;;;;15.00;7.32;;;13.60;65.80;;;;;;4791356;30;20047;-92
2023/05/14 00:07:03;;;;;;;15.07;7.40;;;13.50;65.90;;;;;;4791014;30;20051;-92
2023/05/14 00:09:30;;;;;;;13.30;6.15;;;13.50;66.20;;;;;;4791055;30;20047;-92
2023/05/14 00:11:57;;;;;;;13.07;7.07;;;13.50;65.60;;;;;;4790999;29;20055;-92
2023/05/14 00:14:24;;;;;;;14.23;7.07;;;13.60;65.50;;;;;;4791317;30;20085;-91
2023/05/14 00:16:53;;;;;;;12.65;7.22;;;13.60;65.80;;;;;;4775734;30;20062;-92
2023/05/14 00:19:20;;;;;;;14.02;7.10;;;13.60;65.70;;;;;;4790864;30;20404;-92
2023/05/14 00:21:47;;;;;;;13.77;7.47;;;13.60;66.50;;;;;;4790820;30;20051;-92
2023/05/14 00:24:14;;;;;;;12.47;7.07;;;13.60;66.10;;;;;;4790845;30;20066;-92
2023/05/14 00:26:41;;;;;;;13.65;7.07;;;13.50;66.30;;;;;;4790539;30;20145;-92
2023/05/14 00:29:08;;;;;;;13.35;7.25;;;13.60;66.70;;;;;;4790743;30;20055;-91
2023/05/14 00:31:35;;;;;;;12.65;7.28;;;13.60;66.70;;;;;;4790685;30;20119;-92
2023/05/14 00:34:06;;;;;;;14.63;7.88;;;13.60;66.50;;;;;;4790529;30;20071;-92
2023/05/14 00:36:33;;;;;;;15.00;7.90;;;13.60;66.90;;;;;;4790533;30;20075;-92
2023/05/14 00:38:59;;;;;;;15.05;7.47;;;13.60;67.10;;;;;;4790230;30;20043;-92
2023/05/14 00:41:26;;;;;;;15.45;8.10;;;13.60;66.90;;;;;;4790109;29;20108;-91
2023/05/14 00:43:53;;;;;;;14.35;7.53;;;13.50;67.80;;;;;;4790548;30;20051;-92
2023/05/14 00:46:21;;;;;;;16.77;8.07;;;13.50;67.50;;;;;;4790866;30;20055;-92
2023/05/14 00:48:49;;;;;;;15.17;7.93;;;13.50;67.40;;;;;;4790326;30;20062;-92
2023/05/14 00:51:17;;;;;;;15.38;8.00;;;13.40;67.30;;;;;;4790158;30;20507;-92
2023/05/14 00:53:46;;;;;;;14.18;7.72;;;13.40;67.60;;;;;;4790195;30;20523;-92
2023/05/14 00:56:14;;;;;;;13.75;7.25;;;13.50;67.60;;;;;;4790403;30;20419;-92
2023/05/14 00:58:41;;;;;;;14.73;7.28;;;13.50;66.80;;;;;;4790246;30;20421;-92
2023/05/14 01:01:08;;;;;;;13.37;6.93;;;13.50;66.90;;;;;;4789932;30;20047;-92
2023/05/14 01:03:36;;;;;;;13.93;7.15;;;13.50;67.20;;;;;;4789945;30;20051;-92
2023/05/14 01:06:22;;;;;;;13.02;7.07;;;13.50;67.20;;;;;;4790244;30;20047;-92
2023/05/14 01:09:08;;;;;;;16.77;7.72;;;13.50;66.90;;;;;;4789979;30;20082;-92
2023/05/14 01:11:38;;;;;;;13.40;6.97;;;13.50;66.50;;;;;;4789897;29;20063;-91
2023/05/14 01:14:20;;;;;;;13.93;6.77;;;13.50;66.20;;;;;;4790225;30;20059;-92
2023/05/14 01:16:51;;;;;;;13.27;6.88;;;13.50;66.40;;;;;;4790124;30;20418;-91
2023/05/14 01:19:32;;;;;;;12.52;6.88;;;13.50;66.90;;;;;;4789684;30;20059;-92
2023/05/14 01:21:59;;;;;;;14.07;6.63;;;13.50;66.90;;;;;;4789661;30;20074;-92
2023/05/14 01:24:26;;;;;;;12.63;6.95;;;13.50;67.10;;;;;;4789654;30;20055;-92
2023/05/14 01:27:01;;;;;;;12.33;6.60;;;13.50;66.70;;;;;;4789832;30;20058;-91
2023/05/14 01:29:31;;;;;;;12.82;6.60;;;13.40;66.80;;;;;;4789608;30;20418;-91
2023/05/14 01:32:05;;;;;;;12.68;6.60;;;13.40;66.90;;;;;;4789626;30;20404;-91
2023/05/14 01:34:34;;;;;;;11.63;6.28;;;13.40;66.90;;;;;;4790666;30;20051;-92
2023/05/14 01:37:02;;;;;;;18.33;7.03;;;13.30;66.60;;;;;;4789542;30;20051;-91
2023/05/14 01:39:31;;;;;;;13.87;7.23;;;13.30;66.60;;;;;;4789596;30;20055;-92
2023/05/14 01:41:59;;;;;;;12.88;7.25;;;13.30;66.60;;;;;;4789507;30;20052;-92
2023/05/14 01:44:27;;;;;;;13.60;7.03;;;13.20;66.80;;;;;;4789564;30;20054;-92
2023/05/14 01:46:54;;;;;;;14.40;7.15;;;13.20;67.10;;;;;;4789229;30;20059;-92
2023/05/14 01:49:21;;;;;;;15.10;7.57;;;13.00;67.10;;;;;;4789487;30;20091;-92
2023/05/14 01:51:48;;;;;;;15.90;6.73;;;13.00;67.00;;;;;;4789501;30;20058;-91
2023/05/14 01:54:15;;;;;;;13.90;7.35;;;13.00;67.30;;;;;;4788912;29;20081;-92
2023/05/14 01:56:42;;;;;;;13.35;6.50;;;13.00;67.20;;;;;;4789093;30;20082;-92
2023/05/14 01:59:10;;;;;;;13.35;6.47;;;13.10;67.10;;;;;;4788897;30;20059;-92
2023/05/14 02:01:37;;;;;;;12.77;6.53;;;13.20;66.90;;;;;;4789182;30;20047;-92
2023/05/14 02:04:04;;;;;;;12.50;6.30;;;13.20;67.20;;;;;;4789316;30;20075;-91
2023/05/14 02:06:31;;;;;;;12.48;6.32;;;13.10;67.00;;;;;;4788943;30;20142;-92
2023/05/14 02:08:58;;;;;;;13.38;6.50;;;13.10;66.80;;;;;;4788715;30;20142;-92
2023/05/14 02:11:26;;;;;;;12.48;6.50;;;13.00;67.20;;;;;;4785844;30;20060;-91
2023/05/14 02:13:53;;;;;;;11.85;6.13;;;13.00;67.50;;;;;;4785983;30;20150;-92
2023/05/14 02:16:20;;;;;;;13.03;6.10;;;13.00;67.40;;;;;;4785643;30;20054;-91
2023/05/14 02:18:47;;;;;;;13.85;5.88;;;13.10;67.20;;;;;;4785910;30;20409;-91
2023/05/14 02:21:14;;;;;;;12.95;6.13;;;13.10;67.30;;;;;;4785884;30;20075;-92
2023/05/14 02:23:41;;;;;;;12.93;6.95;;;13.20;67.30;;;;;;4785685;30;20054;-93
2023/05/14 02:26:10;;;;;;;12.27;6.20;;;13.20;67.50;;;;;;4785943;30;20052;-92
2023/05/14 02:28:37;;;;;;;14.07;6.73;;;13.20;67.10;;;;;;4785952;30;20154;-92
2023/05/14 02:31:04;;;;;;;14.10;6.25;;;13.20;67.50;;;;;;4785690;30;20060;-92
2023/05/14 02:33:31;;;;;;;13.35;6.78;;;13.20;67.80;;;;;;4785433;30;20052;-92
2023/05/14 02:35:58;;;;;;;11.75;6.55;;;13.20;68.10;;;;;;4785514;30;20086;-92
2023/05/14 02:38:26;;;;;;;13.98;6.72;;;13.20;68.20;;;;;;4785860;30;20094;-92
2023/05/14 02:40:55;;;;;;;12.90;7.20;;;13.00;67.70;;;;;;4785941;30;20079;-91
2023/05/14 02:43:22;;;;;;;11.50;6.63;;;13.00;67.90;;;;;;4785560;30;20048;-92
2023/05/14 02:45:49;;;;;;;13.13;7.15;;;13.00;67.90;;;;;;4785743;30;20104;-91
2023/05/14 02:48:16;;;;;;;12.63;6.80;;;13.00;68.10;;;;;;4785966;30;20093;-92
2023/05/14 02:50:43;;;;;;;13.00;7.20;;;13.00;68.40;;;;;;4785466;30;20118;-93
2023/05/14 02:53:10;;;;;;;12.10;6.83;;;13.00;68.30;;;;;;4785686;30;20048;-91
2023/05/14 02:55:37;;;;;;;11.95;6.15;;;13.00;68.20;;;;;;4785372;30;20094;-91
2023/05/14 02:58:04;;;;;;;12.20;6.85;;;13.00;68.20;;;;;;4785638;30;20052;-92
2023/05/14 03:00:31;;;;;;;13.15;6.53;;;13.00;68.40;;;;;;4785268;30;20083;-91
2023/05/14 03:02:59;;;;;;;12.90;6.55;;;13.00;68.30;;;;;;4785304;30;20052;-92
2023/05/14 03:05:26;;;;;;;11.93;6.20;;;13.00;68.20;;;;;;4785112;29;20392;-91
2023/05/14 03:07:53;;;;;;;12.85;6.18;;;13.00;68.00;;;;;;4785018;30;20052;-91
2023/05/14 03:10:20;;;;;;;12.60;6.28;;;13.00;67.90;;;;;;4785012;29;20083;-91
2023/05/14 03:12:48;;;;;;;12.85;6.15;;;12.90;67.90;;;;;;4769960;30;20072;-91
2023/05/14 03:15:15;;;;;;;12.65;6.60;;;12.80;67.90;;;;;;4770286;30;20052;-91
2023/05/14 03:17:42;;;;;;;12.80;6.07;;;12.80;67.80;;;;;;4770301;30;20052;-91
2023/05/14 03:20:10;;;;;;;11.65;6.60;;;12.70;67.70;;;;;;4769934;30;20047;-92
2023/05/14 03:22:36;;;;;;;12.05;5.93;;;12.60;67.80;;;;;;4770117;30;20052;-92
2023/05/14 03:25:04;;;;;;;11.95;5.88;;;12.50;68.10;;;;;;4770020;30;20044;-91
2023/05/14 03:27:32;;;;;;;11.20;5.90;;;12.50;68.30;;;;;;4770150;30;20070;-92
2023/05/14 03:29:59;;;;;;;12.77;6.40;;;12.40;68.50;;;;;;4770123;30;20056;-91
2023/05/14 03:32:26;;;;;;;13.45;6.63;;;12.30;68.70;;;;;;4769941;30;20056;-91
2023/05/14 03:34:53;;;;;;;12.02;6.30;;;12.30;68.80;;;;;;4770366;30;20059;-91
2023/05/14 03:37:20;;;;;;;11.43;5.63;;;12.30;68.80;;;;;;4769876;30;20055;-91
2023/05/14 03:39:47;;;;;;;12.32;6.05;;;12.30;68.90;;;;;;4770015;30;20094;-91
2023/05/14 03:42:14;;;;;;;11.63;6.30;;;12.30;68.90;;;;;;4770346;30;20058;-92
2023/05/14 03:44:41;;;;;;;12.88;6.45;;;12.30;68.90;;;;;;4770162;30;20104;-91
2023/05/14 03:47:08;;;;;;;11.98;5.70;;;12.30;68.90;;;;;;4770176;30;20060;-91
2023/05/14 03:49:35;;;;;;;12.85;5.35;;;12.20;68.90;;;;;;4770128;30;20051;-92
2023/05/14 03:52:03;;;;;;;11.98;6.03;;;12.20;69.10;;;;;;4770208;30;20465;-92
2023/05/14 03:54:30;;;;;;;11.80;6.03;;;12.20;68.80;;;;;;4769985;30;20500;-91
2023/05/14 03:56:58;;;;;;;10.32;5.43;;;12.20;69.20;;;;;;4769960;30;20047;-91
2023/05/14 03:59:25;;;;;;;12.38;6.05;;;12.20;69.40;;;;;;4769756;30;20054;-91
2023/05/14 04:01:53;;;;;;;10.73;6.15;;;12.30;69.60;;;;;;4770219;30;20079;-91
2023/05/14 04:04:19;;;;;;;11.93;5.60;;;12.20;69.30;;;;;;4769822;30;20143;-92
2023/05/14 04:06:46;;;;;;;13.53;5.70;;;12.10;69.70;;;;;;4770054;30;20510;-91
2023/05/14 04:09:13;;;;;;;10.32;5.45;;;12.00;70.00;;;;;;4769964;30;20056;-92
2023/05/14 04:11:41;;;;;;;12.60;6.47;;;12.00;70.00;;;;;;4778440;29;20064;-91
2023/05/14 04:14:08;;;;;;;11.07;5.72;;;11.90;70.20;;;;;;4784947;30;20056;-91
2023/05/14 04:16:35;;;;;;;12.00;5.45;;;11.80;70.70;;;;;;4786242;29;20138;-91
2023/05/14 04:19:08;;;;;;;11.73;5.20;;;11.80;70.50;;;;;;4787967;30;20495;-91
2023/05/14 04:21:36;;;;;;;10.43;5.40;;;11.70;70.90;;;;;;4788108;30;20056;-91
2023/05/14 04:24:03;;;;;;;10.73;5.78;;;11.80;70.70;;;;;;4788583;30;20090;-91
2023/05/14 04:26:30;;;;;;;10.77;5.15;;;11.80;71.00;;;;;;4788260;30;20090;-91
2023/05/14 04:29:01;;;;;;;9.93;4.82;;;11.80;70.90;;;;;;4787872;30;20518;-92
2023/05/14 04:31:29;;;;;;;9.87;5.20;;;11.80;71.00;;;;;;4787984;30;20079;-91
2023/05/14 04:33:56;;;;;;;12.98;4.68;;;11.90;70.50;;;;;;4788214;30;20074;-91
2023/05/14 04:36:23;;;;;;;9.77;4.93;;;11.90;70.70;;;;;;4787448;30;20047;-92
2023/05/14 04:38:50;;;;;;;10.63;5.00;;;12.00;70.00;;;;;;4787577;30;20105;-91
2023/05/14 04:41:17;;;;;;;12.73;5.43;;;12.00;69.80;;;;;;4787684;30;20055;-91
2023/05/14 04:43:45;;;;;;;10.53;4.70;;;12.00;69.70;;;;;;4787810;30;20054;-91
2023/05/14 04:46:12;;;;;;;10.77;4.15;;;12.10;69.70;;;;;;4787504;30;20052;-92
2023/05/14 04:48:39;;;;;;;10.73;4.93;;;12.20;68.90;;;;;;4787557;30;20052;-91
2023/05/14 04:51:06;;;;;;;8.82;3.90;;;12.30;68.90;;;;;;4787579;30;20063;-92
2023/05/14 04:53:33;;;;;;;11.73;4.60;;;12.40;68.70;;;;;;4787707;30;20155;-91
2023/05/14 04:56:00;;;;;;;8.87;4.13;;;12.50;68.70;;;;;;4787381;30;20127;-91
2023/05/14 04:58:30;;;;;;;9.20;4.20;;;12.60;67.60;;;;;;4787924;30;20051;-91
2023/05/14 05:01:04;;;;;;;9.13;4.30;;;12.60;67.10;;;;;;4787577;30;20139;-91
2023/05/14 05:03:32;;;;;;;9.00;4.05;;;12.70;67.90;;;;;;4787452;30;20048;-92
2023/05/14 05:05:59;;;;;;;9.63;4.40;;;12.90;67.20;;;;;;4788229;30;20060;-91
2023/05/14 05:08:26;;;;;;;9.03;4.57;;;13.10;67.50;;;;;;4787652;30;20063;-91
2023/05/14 05:10:53;;;;;;;11.15;4.53;;;13.20;66.40;;;;;;4787526;29;20056;-92
2023/05/14 05:13:20;;;;;;;9.65;4.95;;;13.30;66.10;;;;;;4787794;30;20121;-91
2023/05/14 05:15:47;;;;;;;10.00;4.47;;;13.40;65.00;;;;;;4787804;30;20051;-91
2023/05/14 05:18:14;;;;;;;10.40;4.70;;;13.50;65.00;;;;;;4787524;30;20085;-92
2023/05/14 05:20:41;;;;;;;9.30;4.27;;;13.60;65.50;;;;;;4787749;30;20121;-92
2023/05/14 05:23:08;;;;;;;7.75;4.00;;;13.80;64.30;;;;;;4788097;30;20058;-92
2023/05/14 05:25:35;;;;;;;24.38;5.55;;;14.00;63.10;;;;;;4788202;30;20048;-91
2023/05/14 05:28:02;;;;;;;10.40;4.30;;;14.00;63.80;;;;;;4787314;29;20052;-91
2023/05/14 05:30:29;;;;;;;10.43;3.97;;;14.10;62.50;;;;;;4788050;30;20056;-92
2023/05/14 05:32:56;;;;;;;7.30;3.27;;;14.40;63.00;;;;;;4787707;30;20063;-92
2023/05/14 05:35:23;;;;;;;9.35;3.67;;;14.50;61.90;;;;;;4787195;30;20055;-92
2023/05/14 05:37:51;;;;;;;8.77;4.07;;;14.60;62.60;;;;;;4787473;30;20132;-92
2023/05/14 05:40:18;;;;;;;8.32;3.85;;;14.70;62.30;;;;;;4787147;30;20056;-92
2023/05/14 05:42:45;;;;;;;8.68;3.92;;;14.80;61.60;;;;;;4787337;30;20108;-92
2023/05/14 05:45:12;;;;;;;7.50;3.63;;;14.90;61.80;;;;;;4787111;30;20146;-92
2023/05/14 05:47:39;;;;;;;7.50;3.40;;;15.00;60.90;;;;;;4787409;30;20067;-91
2023/05/14 05:50:07;;;;;;;8.73;3.75;;;15.00;59.80;;;;;;4787445;30;20419;-92
2023/05/14 05:52:34;;;;;;;8.52;3.78;;;15.10;60.40;;;;;;4787067;30;20146;-92
2023/05/14 05:55:03;;;;;;;8.55;3.90;;;15.20;59.30;;;;;;4786987;30;20089;-93
2023/05/14 05:57:30;;;;;;;7.23;3.27;;;15.30;59.10;;;;;;4786984;30;20071;-92
2023/05/14 05:59:57;;;;;;;6.55;3.22;;;15.40;58.60;;;;;;4786610;30;20051;-92
2023/05/14 06:02:24;;;;;;;9.60;3.85;;;15.50;59.00;;;;;;4786769;30;20101;-92
2023/05/14 06:04:52;;;;;;;8.10;3.50;;;15.50;58.70;;;;;;4786738;30;20101;-92
2023/05/14 06:07:19;;;;;;;7.65;3.35;;;15.50;59.20;;;;;;4786917;30;20465;-92
2023/05/14 06:09:46;;;;;;;7.67;3.00;;;15.50;58.80;;;;;;4787011;30;20051;-92
2023/05/14 06:12:13;;;;;;;6.20;2.78;;;15.50;59.00;;;;;;4786283;29;20067;-92
2023/05/14 06:14:40;;;;;;;7.85;3.35;;;15.50;57.80;;;;;;4786960;30;20081;-92
2023/05/14 06:17:07;;;;;;;7.72;3.45;;;15.70;59.10;;;;;;4786562;30;20139;-92
2023/05/14 06:19:34;;;;;;;7.47;3.30;;;15.80;58.40;;;;;;4786322;30;20059;-92
2023/05/14 06:22:01;;;;;;;7.50;3.30;;;16.00;57.20;;;;;;4786415;30;20121;-92
2023/05/14 06:24:29;;;;;;;7.38;3.13;;;16.00;58.10;;;;;;4786462;30;20056;-92
2023/05/14 06:26:56;;;;;;;9.43;3.40;;;16.10;56.50;;;;;;4786649;30;20134;-92
2023/05/14 06:29:24;;;;;;;7.93;3.00;;;16.20;56.40;;;;;;4786262;30;20059;-92
2023/05/14 06:31:51;;;;;;;9.20;3.30;;;16.30;55.40;;;;;;4786518;30;20153;-92
2023/05/14 06:34:18;;;;;;;7.63;3.20;;;16.30;55.70;;;;;;4786486;30;20569;-92
2023/05/14 06:36:45;;;;;;;7.13;2.80;;;16.50;55.20;;;;;;4786240;30;20044;-92
2023/05/14 06:39:12;;;;;;;7.05;3.40;;;16.60;55.80;;;;;;4786276;29;20047;-91
2023/05/14 06:41:39;;;;;;;8.38;3.40;;;16.80;55.00;;;;;;4785916;30;20048;-92
2023/05/14 06:44:12;;;;;;;6.88;3.13;;;16.90;55.10;;;;;;4786072;30;20048;-92
2023/05/14 06:46:39;;;;;;;6.40;2.83;;;17.10;56.20;;;;;;4785997;30;20416;-92
2023/05/14 06:49:06;;;;;;;7.90;3.00;;;17.10;55.30;;;;;;4786257;30;20055;-93
2023/05/14 06:51:33;;;;;;;6.70;3.38;;;17.30;54.90;;;;;;4786470;30;20094;-92
2023/05/14 06:54:00;;;;;;;7.70;3.20;;;17.30;56.30;;;;;;4785962;30;20113;-92
2023/05/14 06:56:27;;;;;;;8.43;4.10;;;17.30;57.30;;;;;;4786146;30;20454;-93
2023/05/14 06:58:54;;;;;;;6.40;3.00;;;17.50;56.90;;;;;;4785633;30;20051;-92
2023/05/14 07:01:21;;;;;;;6.63;3.20;;;17.50;54.80;;;;;;4785953;30;20064;-92
2023/05/14 07:03:48;;;;;;;8.40;3.53;;;17.60;55.20;;;;;;4785459;30;20519;-92
2023/05/14 07:06:15;;;;;;;6.30;3.17;;;17.60;55.00;;;;;;4785989;30;20621;-92
2023/05/14 07:08:46;;;;;;;7.00;3.00;;;17.70;54.30;;;;;;4786127;30;20062;-92
2023/05/14 07:11:14;;;;;;;7.10;3.53;;;17.70;53.70;;;;;;4785631;30;20060;-92
2023/05/14 07:13:41;;;;;;;6.85;3.63;;;17.70;54.40;;;;;;4785891;30;20055;-92
2023/05/14 07:16:09;;;;;;;7.75;3.78;;;17.70;55.20;;;;;;4785606;30;20113;-93
2023/05/14 07:18:36;;;;;;;7.47;2.90;;;17.80;55.50;;;;;;4785796;30;20056;-92
2023/05/14 07:21:05;;;;;;;6.85;3.05;;;18.00;54.80;;;;;;4785792;30;20062;-92
2023/05/14 07:23:35;;;;;;;9.53;3.50;;;18.00;53.00;;;;;;4785231;30;20058;-92
2023/05/14 07:26:05;;;;;;;7.93;3.15;;;18.00;52.20;;;;;;4785727;30;20051;-92
2023/05/14 07:28:33;;;;;;;10.02;3.67;;;18.00;52.20;;;;;;4785819;30;20150;-92
2023/05/14 07:31:00;;;;;;;9.35;3.80;;;18.00;51.90;;;;;;4785874;30;20503;-92
2023/05/14 07:33:27;;;;;;;8.80;3.42;;;18.00;52.80;;;;;;4785708;30;20063;-92
2023/05/14 07:35:54;;;;;;;7.60;3.53;;;17.90;54.80;;;;;;4785574;30;20577;-92
2023/05/14 07:38:21;;;;;;;7.97;3.67;;;17.90;54.10;;;;;;4785518;30;20056;-92
2023/05/14 07:40:48;;;;;;;8.55;3.63;;;17.90;54.50;;;;;;4785677;30;20095;-92
2023/05/14 07:43:16;;;;;;;7.07;3.38;;;17.80;55.40;;;;;;4785912;30;20131;-92
2023/05/14 07:45:43;;;;;;;9.85;3.90;;;17.80;55.50;;;;;;4785539;30;20512;-92
2023/05/14 07:48:10;;;;;;;8.23;3.67;;;17.80;54.90;;;;;;4785702;30;20512;-92
2023/05/14 07:50:37;;;;;;;8.88;3.70;;;17.80;55.40;;;;;;4785648;29;20094;-92
2023/05/14 07:53:05;;;;;;;7.35;3.92;;;17.80;55.20;;;;;;4789003;30;20087;-92
2023/05/14 07:55:32;;;;;;;8.63;3.70;;;17.80;54.70;;;;;;4788956;30;20062;-92
2023/05/14 07:57:59;;;;;;;7.93;3.90;;;18.00;54.20;;;;;;4788729;30;20059;-92
2023/05/14 08:00:26;;;;;;;8.03;3.43;;;18.00;56.10;;;;;;4788989;30;20047;-92
2023/05/14 08:02:54;;;;;;;7.75;3.88;;;18.30;55.20;;;;;;4788655;30;20173;-91
2023/05/14 08:05:22;;;;;;;7.65;4.20;;;18.20;54.80;;;;;;4788435;30;20515;-92
2023/05/14 08:07:49;;;;;;;8.25;4.00;;;18.30;53.40;;;;;;4788551;30;20059;-92
2023/05/14 08:10:16;;;;;;;8.35;3.90;;;18.30;54.00;;;;;;4788449;29;20055;-92
2023/05/14 08:12:43;;;;;;;10.37;3.93;;;18.30;55.50;;;;;;4773884;30;20059;-91
2023/05/14 08:15:10;;;;;;;6.80;3.42;;;18.30;53.20;;;;;;4773441;30;20592;-92
2023/05/14 08:17:37;;;;;;;8.45;3.95;;;18.30;54.50;;;;;;4773425;30;20056;-92
2023/05/14 08:20:05;;;;;;;7.40;3.78;;;18.30;54.20;;;;;;4773621;30;20048;-91
2023/05/14 08:22:32;;;;;;;7.55;3.67;;;18.30;54.80;;;;;;4773673;30;20081;-92
2023/05/14 08:25:01;;;;;;;7.27;3.60;;;18.20;53.80;;;;;;4773492;30;20105;-92
2023/05/14 08:27:28;;;;;;;8.00;3.65;;;18.20;54.90;;;;;;4773742;30;20060;-91
2023/05/14 08:29:55;;;;;;;7.82;3.80;;;18.20;54.30;;;;;;4773341;30;20094;-92
2023/05/14 08:32:22;;;;;;;9.27;3.97;;;18.10;55.70;;;;;;4773072;30;20051;-92
2023/05/14 08:34:50;;;;;;;9.80;4.10;;;18.10;54.60;;;;;;4773350;30;20584;-91
2023/05/14 08:37:17;;;;;;;8.57;3.60;;;18.10;57.80;;;;;;4773190;30;20055;-92
2023/05/14 08:39:45;;;;;;;6.05;3.20;;;18.20;54.20;;;;;;4773105;30;20044;-92
2023/05/14 08:42:12;;;;;;;7.82;3.80;;;18.30;54.70;;;;;;4773059;30;20060;-92
2023/05/14 08:44:48;;;;;;;7.70;3.42;;;18.20;54.00;;;;;;4777548;30;20051;-92
2023/05/14 08:47:19;;;;;;;10.90;4.22;;;18.20;54.70;;;;;;4788017;30;20150;-92
2023/05/14 08:49:52;;;;;;;8.07;3.50;;;18.30;54.80;;;;;;4788016;30;20572;-91
2023/05/14 08:52:21;;;;;;;10.48;3.80;;;18.30;54.30;;;;;;4787954;30;20059;-92
2023/05/14 08:54:49;;;;;;;7.00;3.42;;;18.40;54.10;;;;;;4787697;30;20105;-92
2023/05/14 08:57:19;;;;;;;8.05;4.07;;;18.40;53.70;;;;;;4788023;30;20071;-92
2023/05/14 08:59:46;;;;;;;8.95;4.55;;;18.50;54.00;;;;;;4787845;30;20052;-92
2023/05/14 09:02:16;;;;;;;8.07;4.00;;;18.50;54.20;;;;;;4787560;29;20079;-92
2023/05/14 09:04:44;;;;;;;9.20;3.95;;;18.50;54.70;;;;;;4787511;30;20404;-92
2023/05/14 09:07:11;;;;;;;8.45;4.10;;;18.50;55.10;;;;;;4787595;30;20519;-92
2023/05/14 09:09:39;;;;;;;8.25;3.97;;;18.50;53.60;;;;;;4787320;30;20511;-91
2023/05/14 09:12:07;;;;;;;7.13;4.05;;;18.50;53.20;;;;;;4787708;29;20498;-92
2023/05/14 09:14:34;;;;;;;7.80;4.33;;;18.60;53.30;;;;;;4787476;30;20058;-92
2023/05/14 09:17:02;;;;;;;8.45;4.05;;;18.60;54.20;;;;;;4787415;30;20119;-92
2023/05/14 09:19:29;;;;;;;8.23;4.50;;;18.50;54.10;;;;;;4787494;30;20129;-92
2023/05/14 09:22:00;;;;;;;20.05;4.88;;;18.50;53.50;;;;;;4787352;30;20052;-92
2023/05/14 09:24:29;;;;;;;7.97;4.07;;;18.50;55.20;;;;;;4787392;30;20047;-92
2023/05/14 09:26:57;;;;;;;7.90;4.00;;;18.60;54.50;;;;;;4786989;30;20051;-92
2023/05/14 09:29:26;;;;;;;8.20;4.35;;;18.60;55.30;;;;;;4786855;30;20059;-92
2023/05/14 09:31:57;;;;;;;9.70;4.95;;;18.70;53.70;;;;;;4786965;30;20090;-92
2023/05/14 09:34:29;;;;;;;9.00;4.78;;;18.70;54.00;;;;;;4786827;30;20082;-91
2023/05/14 09:37:00;;;;;;;9.13;4.00;;;18.80;53.40;;;;;;4787044;30;20048;-92
2023/05/14 09:39:29;;;;;;;10.67;4.70;;;19.00;54.20;;;;;;4786675;30;20060;-92
2023/05/14 09:41:56;;;;;;;10.48;4.13;;;19.00;53.90;;;;;;4786476;30;20508;-92
2023/05/14 09:44:24;;;;;;;7.75;4.38;;;19.10;53.90;;;;;;4786529;30;20055;-92
2023/05/14 09:46:52;;;;;;;11.38;4.63;;;19.00;52.20;;;;;;4786807;30;20097;-92
2023/05/14 09:49:19;;;;;;;9.90;4.60;;;19.00;52.10;;;;;;4786427;30;20064;-91
2023/05/14 09:51:48;;;;;;;9.27;4.33;;;19.00;52.10;;;;;;4786463;30;20056;-92
2023/05/14 09:54:15;;;;;;;8.43;4.50;;;19.10;54.60;;;;;;4786399;30;20109;-91
2023/05/14 09:56:43;;;;;;;8.40;4.57;;;19.10;51.80;;;;;;4786480;30;20055;-92
2023/05/14 09:59:10;;;;;;;7.65;4.25;;;19.10;52.00;;;;;;4786126;30;20108;-92
2023/05/14 10:01:38;;;;;;;8.10;4.50;;;19.20;52.90;;;;;;4786316;30;20090;-91
2023/05/14 10:04:08;;;;;;;8.63;4.30;;;19.20;52.00;;;;;;4786258;30;20151;-92
2023/05/14 10:06:40;;;;;;;11.00;5.30;;;19.20;54.20;;;;;;4786335;30;20052;-92
2023/05/14 10:09:18;;;;;;;9.13;5.00;;;19.20;54.20;;;;;;4786127;30;20056;-92
2023/05/14 10:11:49;;;;;;;8.43;4.53;;;19.50;54.80;;;;;;4786248;29;20121;-92
2023/05/14 10:14:23;;;;;;;8.98;4.65;;;19.50;53.00;;;;;;4785548;30;20063;-92
2023/05/14 10:16:51;;;;;;;10.43;5.30;;;19.30;53.00;;;;;;4786169;30;20140;-92
2023/05/14 10:19:22;;;;;;;9.85;4.63;;;19.30;53.60;;;;;;4785872;30;20105;-92
2023/05/14 10:21:58;;;;;;;10.00;4.70;;;19.20;54.00;;;;;;4785965;30;20508;-92
2023/05/14 10:24:26;;;;;;;9.15;5.07;;;19.10;54.20;;;;;;4785997;30;20054;-92
2023/05/14 10:26:53;;;;;;;9.68;4.78;;;19.20;54.40;;;;;;4785860;30;20451;-92
2023/05/14 10:29:32;;;;;;;9.00;5.20;;;19.20;54.70;;;;;;4786039;30;20063;-92
2023/05/14 10:32:06;;;;;;;9.27;5.43;;;19.10;54.70;;;;;;4785872;30;20061;-92
2023/05/14 10:34:45;;;;;;;8.95;4.93;;;19.10;54.40;;;;;;4785862;30;20154;-92
2023/05/14 10:37:16;;;;;;;9.88;4.90;;;19.10;54.90;;;;;;4785617;30;20052;-92
2023/05/14 10:39:57;;;;;;;8.50;4.32;;;19.10;54.90;;;;;;4785723;30;20143;-92
2023/05/14 10:42:38;;;;;;;14.90;4.57;;;19.10;54.70;;;;;;4785567;30;20051;-91
2023/05/14 10:45:07;;;;;;;9.77;4.93;;;19.10;55.20;;;;;;4785414;30;20048;-93
2023/05/14 10:47:36;;;;;;;9.30;5.07;;;19.10;54.50;;;;;;4785484;30;20056;-92
2023/05/14 10:50:09;;;;;;;9.13;4.50;;;19.20;54.20;;;;;;4785149;30;20051;-92
2023/05/14 10:52:37;;;;;;;8.60;4.30;;;19.20;53.20;;;;;;4785350;30;20511;-92
2023/05/14 10:55:11;;;;;;;9.83;4.07;;;19.10;53.40;;;;;;4785176;30;20142;-92
2023/05/14 10:57:40;;;;;;;9.13;4.10;;;19.00;53.70;;;;;;4785533;30;20411;-92
2023/05/14 11:00:09;;;;;;;9.40;4.72;;;19.00;54.20;;;;;;4784936;30;20055;-92
2023/05/14 11:02:41;;;;;;;8.95;4.72;;;19.10;55.00;;;;;;4785196;30;20075;-92
2023/05/14 11:05:14;;;;;;;10.48;5.00;;;19.10;53.70;;;;;;4785216;30;20113;-92
2023/05/14 11:07:43;;;;;;;8.53;4.20;;;19.10;53.80;;;;;;4785054;30;20105;-92
2023/05/14 11:10:18;;;;;;;10.38;4.40;;;19.10;53.20;;;;;;4785808;29;20060;-92
2023/05/14 11:12:50;;;;;;;10.25;4.35;;;19.10;53.20;;;;;;4806125;29;20082;-92
2023/05/14 11:15:20;;;;;;;7.78;4.10;;;19.10;53.70;;;;;;4805875;29;20051;-92
2023/05/14 11:17:48;;;;;;;9.35;4.60;;;19.10;53.80;;;;;;4806241;29;20422;-92
2023/05/14 11:20:16;;;;;;;9.07;4.07;;;19.10;53.80;;;;;;4806253;29;20062;-92
2023/05/14 11:22:45;;;;;;;8.63;4.55;;;19.10;53.70;;;;;;4805933;29;20051;-92
2023/05/14 11:25:13;;;;;;;10.70;4.65;;;19.10;53.60;;;;;;4806064;29;20046;-92
2023/05/14 11:27:42;;;;;;;9.45;4.30;;;19.20;53.90;;;;;;4809209;29;20051;-91
2023/05/14 11:30:17;;;;;;;9.68;4.00;;;19.20;54.20;;;;;;4809642;29;20050;-92
2023/05/14 11:32:47;;;;;;;7.70;4.10;;;19.30;55.00;;;;;;4809800;29;20506;-92
2023/05/14 11:35:16;;;;;;;8.38;3.92;;;19.40;54.70;;;;;;4809553;29;20145;-91
2023/05/14 11:37:50;;;;;;;8.05;4.40;;;19.40;54.50;;;;;;4809459;29;20109;-92
2023/05/14 11:40:18;;;;;;;10.68;4.97;;;19.20;54.10;;;;;;4809489;29;20086;-92
2023/05/14 11:42:45;;;;;;;8.43;4.18;;;19.10;53.90;;;;;;4809600;29;20050;-92
2023/05/14 11:45:13;;;;;;;9.57;4.70;;;19.10;55.70;;;;;;4809253;29;20417;-91
2023/05/14 11:47:41;;;;;;;10.02;4.13;;;19.10;53.80;;;;;;4809453;29;20053;-92
2023/05/14 11:50:09;;;;;;;7.70;4.20;;;19.20;54.60;;;;;;4809234;29;20055;-92
2023/05/14 11:52:40;;;;;;;8.93;4.68;;;19.30;53.50;;;;;;4809308;29;20071;-92
2023/05/14 11:55:11;;;;;;;8.05;4.25;;;19.20;55.30;;;;;;4809342;29;20502;-92
2023/05/14 11:57:39;;;;;;;9.43;4.40;;;19.20;53.90;;;;;;4809173;29;20046;-92
2023/05/14 12:00:19;;;;;;;8.07;4.43;;;19.10;53.40;;;;;;4809433;29;20200;-92
2023/05/14 12:02:50;;;;;;;11.88;4.38;;;19.00;54.60;;;;;;4809170;29;20054;-92
2023/05/14 12:05:17;;;;;;;8.75;4.70;;;19.10;56.10;;;;;;4809162;29;20051;-92
2023/05/14 12:07:46;;;;;;;8.45;4.55;;;19.30;56.70;;;;;;4809032;29;20137;-92
2023/05/14 12:10:13;;;;;;;7.60;4.20;;;19.50;53.50;;;;;;4809091;29;20414;-92
2023/05/14 12:12:43;;;;;;;9.05;4.90;;;19.40;53.90;;;;;;4809054;29;20129;-92
2023/05/14 12:15:15;;;;;;;8.52;5.10;;;19.30;53.80;;;;;;4809162;29;20043;-92
2023/05/14 12:17:49;;;;;;;8.63;4.45;;;19.20;55.30;;;;;;4793755;29;20051;-92
2023/05/14 12:20:17;;;;;;;9.73;4.75;;;19.20;54.50;;;;;;4808895;29;20079;-91
2023/05/14 12:22:44;;;;;;;8.73;4.27;;;19.20;55.10;;;;;;4808846;29;20054;-92
2023/05/14 12:25:12;;;;;;;9.18;4.47;;;19.10;56.80;;;;;;4808634;29;20047;-92
2023/05/14 12:27:40;;;;;;;8.40;3.97;;;19.20;54.20;;;;;;4808851;29;20532;-91
2023/05/14 12:30:08;;;;;;;10.27;4.28;;;19.30;54.70;;;;;;4808790;29;20084;-93
2023/05/14 12:32:39;;;;;;;8.68;4.53;;;19.30;54.60;;;;;;4808633;29;20051;-92
2023/05/14 12:35:08;;;;;;;8.97;4.50;;;19.30;53.90;;;;;;4808696;29;20050;-91
2023/05/14 12:37:36;;;;;;;8.40;4.30;;;19.30;54.20;;;;;;4808302;29;20065;-92
2023/05/14 12:40:07;;;;;;;9.80;4.60;;;19.30;54.30;;;;;;4808640;29;20394;-92
2023/05/14 12:42:35;;;;;;;9.23;4.10;;;19.10;54.10;;;;;;4808547;29;20055;-92
2023/05/14 12:45:05;;;;;;;9.10;4.03;;;19.30;54.80;;;;;;4808591;29;20055;-92
2023/05/14 12:47:33;;;;;;;7.33;3.70;;;19.30;54.60;;;;;;4808684;29;20043;-92
2023/05/14 12:50:00;;;;;;;8.45;3.85;;;19.20;53.10;;;;;;4808722;29;20065;-92